JST528 YMML-YSSY
Flight info
| Callsign | JST528 |
|---|---|
| Flight time | 1h 0m |
| Altitude | 35000 |
| Route | ML H129 DOSEL Y59 RIVET |
| Aircraft | A320/M-SDE3FGHIRWY/LB1 |
Departure
| Time | 2026-05-07 09:56 |
|---|---|
| Airport | Melbourne Airport (YMML) |
Arrival
| Time | 2026-05-07 10:57 |
|---|---|
| Airport | Sydney Kingsford Smith International Airport (YSSY) |
| Time | Latitude | Longitude | Altitude | Speed | Heading |
|---|---|---|---|---|---|
| 2026-05-07 09:12 | -37.67651 | 144.84666 | 375 ft | 0 kts | 38° |
| 2026-05-07 09:41 | -37.67660 | 144.84656 | 374 ft | 4 kts | 38° |
| 2026-05-07 09:41 | -37.67689 | 144.84628 | 372 ft | 4 kts | 37° |
| 2026-05-07 09:42 | -37.67704 | 144.84615 | 372 ft | 4 kts | 37° |
| 2026-05-07 09:42 | -37.67710 | 144.84609 | 371 ft | 0 kts | 37° |
| 2026-05-07 09:43 | -37.67710 | 144.84608 | 371 ft | 0 kts | 37° |
| 2026-05-07 09:46 | -37.67710 | 144.84609 | 371 ft | 0 kts | 35° |
| 2026-05-07 09:46 | -37.67708 | 144.84608 | 371 ft | 1 kts | 13° |
| 2026-05-07 09:46 | -37.67680 | 144.84590 | 372 ft | 8 kts | 336° |
| 2026-05-07 09:46 | -37.67625 | 144.84565 | 374 ft | 9 kts | 347° |
| 2026-05-07 09:47 | -37.67566 | 144.84555 | 376 ft | 8 kts | 352° |
| 2026-05-07 09:47 | -37.67505 | 144.84540 | 378 ft | 10 kts | 339° |
| 2026-05-07 09:47 | -37.67468 | 144.84459 | 378 ft | 13 kts | 267° |
| 2026-05-07 09:47 | -37.67468 | 144.84332 | 376 ft | 15 kts | 303° |
| 2026-05-07 09:48 | -37.67371 | 144.84300 | 378 ft | 15 kts | 352° |
| 2026-05-07 09:48 | -37.67264 | 144.84282 | 381 ft | 16 kts | 351° |
| 2026-05-07 09:48 | -37.67149 | 144.84259 | 383 ft | 17 kts | 351° |
| 2026-05-07 09:48 | -37.67026 | 144.84236 | 385 ft | 18 kts | 351° |
| 2026-05-07 09:49 | -37.66896 | 144.84211 | 388 ft | 19 kts | 351° |
| 2026-05-07 09:49 | -37.66787 | 144.84193 | 392 ft | 13 kts | 353° |
| 2026-05-07 09:49 | -37.66708 | 144.84212 | 396 ft | 11 kts | 47° |
| 2026-05-07 09:49 | -37.66688 | 144.84307 | 395 ft | 12 kts | 83° |
| 2026-05-07 09:50 | -37.66678 | 144.84414 | 397 ft | 13 kts | 83° |
| 2026-05-07 09:50 | -37.66663 | 144.84529 | 399 ft | 14 kts | 81° |
| 2026-05-07 09:50 | -37.66648 | 144.84649 | 401 ft | 14 kts | 81° |
| 2026-05-07 09:50 | -37.66626 | 144.84771 | 402 ft | 14 kts | 60° |
| 2026-05-07 09:51 | -37.66550 | 144.84801 | 404 ft | 11 kts | 346° |
| 2026-05-07 09:51 | -37.66476 | 144.84777 | 407 ft | 11 kts | 349° |
| 2026-05-07 09:51 | -37.66407 | 144.84779 | 409 ft | 8 kts | 4° |
| 2026-05-07 09:51 | -37.66375 | 144.84782 | 410 ft | 0 kts | 4° |
| 2026-05-07 09:52 | -37.66370 | 144.84782 | 411 ft | 1 kts | 4° |
| 2026-05-07 09:52 | -37.66365 | 144.84782 | 411 ft | 0 kts | 4° |
| 2026-05-07 09:52 | -37.66364 | 144.84783 | 411 ft | 0 kts | 4° |
| 2026-05-07 09:52 | -37.66361 | 144.84783 | 410 ft | 1 kts | 4° |
| 2026-05-07 09:53 | -37.66358 | 144.84783 | 412 ft | 0 kts | 4° |
| 2026-05-07 09:53 | -37.66354 | 144.84783 | 412 ft | 1 kts | 4° |
| 2026-05-07 09:54 | -37.66346 | 144.84784 | 412 ft | 1 kts | 4° |
| 2026-05-07 09:54 | -37.66316 | 144.84787 | 408 ft | 8 kts | 4° |
| 2026-05-07 09:54 | -37.66256 | 144.84791 | 413 ft | 9 kts | 359° |
| 2026-05-07 09:54 | -37.66226 | 144.84759 | 413 ft | 3 kts | 283° |
| 2026-05-07 09:55 | -37.66222 | 144.84722 | 413 ft | 6 kts | 276° |
| 2026-05-07 09:55 | -37.66220 | 144.84684 | 413 ft | 0 kts | 275° |
| 2026-05-07 09:55 | -37.66219 | 144.84678 | 413 ft | 4 kts | 275° |
| 2026-05-07 09:55 | -37.66202 | 144.84355 | 410 ft | 79 kts | 274° |
| 2026-05-07 09:56 | -37.66146 | 144.83364 | 422 ft | 144 kts | 275° |
| 2026-05-07 09:56 | -37.66037 | 144.82048 | 1050 ft | 155 kts | 275° |
| 2026-05-07 09:56 | -37.65930 | 144.80684 | 1918 ft | 160 kts | 272° |
| 2026-05-07 09:56 | -37.65825 | 144.79310 | 2717 ft | 156 kts | 271° |
| 2026-05-07 09:57 | -37.65732 | 144.77905 | 3195 ft | 166 kts | 269° |
| 2026-05-07 09:57 | -37.65662 | 144.76375 | 3605 ft | 186 kts | 267° |
| 2026-05-07 09:57 | -37.65595 | 144.74639 | 3997 ft | 210 kts | 268° |
| 2026-05-07 09:57 | -37.65505 | 144.72711 | 4587 ft | 227 kts | 268° |
| 2026-05-07 09:58 | -37.65397 | 144.70702 | 5454 ft | 233 kts | 268° |
| 2026-05-07 09:58 | -37.65237 | 144.68626 | 6261 ft | 245 kts | 275° |
| 2026-05-07 09:58 | -37.64540 | 144.66579 | 7014 ft | 268 kts | 297° |
| 2026-05-07 09:58 | -37.63147 | 144.64943 | 7768 ft | 290 kts | 323° |
| 2026-05-07 09:59 | -37.61200 | 144.64031 | 8532 ft | 306 kts | 338° |
| 2026-05-07 09:59 | -37.59130 | 144.63300 | 9305 ft | 314 kts | 342° |
| 2026-05-07 09:59 | -37.56904 | 144.63063 | 10071 ft | 329 kts | 0° |
| 2026-05-07 09:59 | -37.54605 | 144.63598 | 10543 ft | 348 kts | 18° |
| 2026-05-07 10:00 | -37.52394 | 144.65031 | 10769 ft | 370 kts | 38° |
| 2026-05-07 10:00 | -37.50564 | 144.67363 | 11161 ft | 379 kts | 57° |
| 2026-05-07 10:00 | -37.48966 | 144.70057 | 11672 ft | 388 kts | 57° |
| 2026-05-07 10:00 | -37.47373 | 144.72826 | 12318 ft | 392 kts | 62° |
| 2026-05-07 10:01 | -37.46008 | 144.75749 | 12982 ft | 395 kts | 64° |
| 2026-05-07 10:01 | -37.44623 | 144.78762 | 13624 ft | 400 kts | 64° |
| 2026-05-07 10:01 | -37.43226 | 144.81813 | 14251 ft | 405 kts | 64° |
| 2026-05-07 10:01 | -37.41816 | 144.84895 | 14835 ft | 409 kts | 64° |
| 2026-05-07 10:02 | -37.40387 | 144.88010 | 15414 ft | 413 kts | 64° |
| 2026-05-07 10:02 | -37.38944 | 144.91151 | 16011 ft | 416 kts | 64° |
| 2026-05-07 10:02 | -37.37489 | 144.94316 | 16586 ft | 420 kts | 63° |
| 2026-05-07 10:02 | -37.36019 | 144.97506 | 17141 ft | 424 kts | 63° |
| 2026-05-07 10:03 | -37.34532 | 145.00722 | 17701 ft | 428 kts | 63° |
| 2026-05-07 10:03 | -37.33029 | 145.03960 | 18256 ft | 432 kts | 63° |
| 2026-05-07 10:03 | -37.31526 | 145.07200 | 18787 ft | 436 kts | 63° |
| 2026-05-07 10:03 | -37.29995 | 145.10502 | 19293 ft | 440 kts | 63° |
| 2026-05-07 10:04 | -37.28452 | 145.13842 | 19817 ft | 443 kts | 63° |
| 2026-05-07 10:04 | -37.26901 | 145.17199 | 20328 ft | 447 kts | 62° |
| 2026-05-07 10:04 | -37.25332 | 145.20591 | 20831 ft | 450 kts | 62° |
| 2026-05-07 10:04 | -37.23754 | 145.23996 | 21313 ft | 454 kts | 62° |
| 2026-05-07 10:05 | -37.22160 | 145.27430 | 21800 ft | 457 kts | 62° |
| 2026-05-07 10:05 | -37.20551 | 145.30892 | 22230 ft | 461 kts | 62° |
| 2026-05-07 10:05 | -37.18947 | 145.34326 | 22673 ft | 464 kts | 62° |
| 2026-05-07 10:05 | -37.17312 | 145.37825 | 23133 ft | 467 kts | 62° |
| 2026-05-07 10:06 | -37.15539 | 145.41255 | 23558 ft | 472 kts | 56° |
| 2026-05-07 10:06 | -37.13616 | 145.44613 | 23973 ft | 475 kts | 55° |
| 2026-05-07 10:06 | -37.11681 | 145.47982 | 24360 ft | 478 kts | 55° |
| 2026-05-07 10:06 | -37.09731 | 145.51372 | 24741 ft | 481 kts | 55° |
| 2026-05-07 10:07 | -37.07771 | 145.54776 | 25146 ft | 483 kts | 55° |
| 2026-05-07 10:07 | -37.05801 | 145.58196 | 25523 ft | 486 kts | 55° |
| 2026-05-07 10:07 | -37.03823 | 145.61630 | 25887 ft | 488 kts | 55° |
| 2026-05-07 10:07 | -37.01860 | 145.65040 | 26252 ft | 490 kts | 55° |
| 2026-05-07 10:08 | -36.99867 | 145.68507 | 26605 ft | 492 kts | 55° |
| 2026-05-07 10:08 | -36.97859 | 145.71990 | 26978 ft | 495 kts | 55° |
| 2026-05-07 10:08 | -36.95838 | 145.75492 | 27347 ft | 497 kts | 54° |
| 2026-05-07 10:08 | -36.93805 | 145.79007 | 27755 ft | 500 kts | 54° |
| 2026-05-07 10:09 | -36.91760 | 145.82538 | 28097 ft | 503 kts | 54° |
| 2026-05-07 10:09 | -36.89702 | 145.86089 | 28436 ft | 506 kts | 54° |
| 2026-05-07 10:09 | -36.87629 | 145.89657 | 28780 ft | 509 kts | 54° |
| 2026-05-07 10:09 | -36.85573 | 145.93191 | 29136 ft | 511 kts | 54° |
| 2026-05-07 10:10 | -36.83478 | 145.96791 | 29485 ft | 513 kts | 54° |
| 2026-05-07 10:10 | -36.81379 | 146.00397 | 29821 ft | 515 kts | 54° |
| 2026-05-07 10:10 | -36.79273 | 146.04014 | 30301 ft | 515 kts | 54° |
| 2026-05-07 10:10 | -36.77168 | 146.07621 | 30740 ft | 514 kts | 54° |
| 2026-05-07 10:11 | -36.75058 | 146.11230 | 31138 ft | 514 kts | 54° |
| 2026-05-07 10:11 | -36.72960 | 146.14813 | 31621 ft | 511 kts | 54° |
| 2026-05-07 10:11 | -36.70864 | 146.18386 | 32100 ft | 509 kts | 54° |
| 2026-05-07 10:11 | -36.68779 | 146.21941 | 32563 ft | 508 kts | 54° |
| 2026-05-07 10:12 | -36.66697 | 146.25484 | 33036 ft | 506 kts | 54° |
| 2026-05-07 10:12 | -36.64648 | 146.28974 | 33504 ft | 504 kts | 55° |
| 2026-05-07 10:12 | -36.62581 | 146.32496 | 33990 ft | 503 kts | 55° |
| 2026-05-07 10:12 | -36.60521 | 146.36004 | 34443 ft | 501 kts | 55° |
| 2026-05-07 10:13 | -36.58465 | 146.39495 | 34849 ft | 500 kts | 55° |
| 2026-05-07 10:13 | -36.56413 | 146.42976 | 35168 ft | 499 kts | 55° |
| 2026-05-07 10:13 | -36.54358 | 146.46460 | 35256 ft | 501 kts | 55° |
| 2026-05-07 10:14 | -36.50222 | 146.53458 | 35271 ft | 503 kts | 54° |
| 2026-05-07 10:14 | -36.46107 | 146.60397 | 35272 ft | 500 kts | 54° |
| 2026-05-07 10:15 | -36.41982 | 146.67341 | 35270 ft | 500 kts | 54° |
| 2026-05-07 10:15 | -36.37855 | 146.74281 | 35269 ft | 500 kts | 54° |
| 2026-05-07 10:16 | -36.33729 | 146.81215 | 35258 ft | 499 kts | 55° |
| 2026-05-07 10:16 | -36.29622 | 146.88100 | 35284 ft | 500 kts | 54° |
| 2026-05-07 10:17 | -36.25479 | 146.95013 | 35266 ft | 500 kts | 54° |
| 2026-05-07 10:17 | -36.21330 | 147.01922 | 35253 ft | 500 kts | 54° |
| 2026-05-07 10:18 | -36.17172 | 147.08832 | 35261 ft | 500 kts | 54° |
| 2026-05-07 10:18 | -36.13023 | 147.15729 | 35283 ft | 500 kts | 55° |
| 2026-05-07 10:19 | -36.08873 | 147.22626 | 35281 ft | 500 kts | 55° |
| 2026-05-07 10:19 | -36.04745 | 147.29457 | 35268 ft | 499 kts | 55° |
| 2026-05-07 10:20 | -36.00580 | 147.36322 | 35280 ft | 499 kts | 55° |
| 2026-05-07 10:20 | -35.96423 | 147.43166 | 35294 ft | 499 kts | 55° |
| 2026-05-07 10:21 | -35.92259 | 147.50016 | 35280 ft | 499 kts | 55° |
| 2026-05-07 10:21 | -35.88120 | 147.56814 | 35279 ft | 499 kts | 55° |
| 2026-05-07 10:22 | -35.83950 | 147.63652 | 35278 ft | 499 kts | 55° |
| 2026-05-07 10:22 | -35.79768 | 147.70483 | 35272 ft | 499 kts | 55° |
| 2026-05-07 10:23 | -35.75583 | 147.77313 | 35277 ft | 500 kts | 55° |
| 2026-05-07 10:23 | -35.71391 | 147.84134 | 35279 ft | 500 kts | 54° |
| 2026-05-07 10:24 | -35.67226 | 147.90903 | 35285 ft | 499 kts | 54° |
| 2026-05-07 10:24 | -35.63026 | 147.97697 | 35282 ft | 499 kts | 55° |
| 2026-05-07 10:25 | -35.58826 | 148.04484 | 35280 ft | 499 kts | 54° |
| 2026-05-07 10:25 | -35.54628 | 148.11273 | 35275 ft | 498 kts | 55° |
| 2026-05-07 10:26 | -35.50432 | 148.18041 | 35261 ft | 498 kts | 55° |
| 2026-05-07 10:26 | -35.46252 | 148.24759 | 35262 ft | 499 kts | 54° |
| 2026-05-07 10:27 | -35.42030 | 148.31532 | 35244 ft | 501 kts | 54° |
| 2026-05-07 10:27 | -35.37800 | 148.38307 | 35258 ft | 501 kts | 54° |
| 2026-05-07 10:28 | -35.33559 | 148.45100 | 35243 ft | 503 kts | 54° |
| 2026-05-07 10:28 | -35.29304 | 148.51904 | 35225 ft | 503 kts | 54° |
| 2026-05-07 10:29 | -35.25048 | 148.58674 | 35223 ft | 506 kts | 54° |
| 2026-05-07 10:29 | -35.20745 | 148.65483 | 35217 ft | 509 kts | 54° |
| 2026-05-07 10:30 | -35.14289 | 148.75781 | 35229 ft | 509 kts | 54° |
| 2026-05-07 10:30 | -35.09990 | 148.82563 | 35212 ft | 507 kts | 54° |
| 2026-05-07 10:31 | -35.05670 | 148.89360 | 35209 ft | 507 kts | 54° |
| 2026-05-07 10:31 | -35.01295 | 148.96246 | 35256 ft | 516 kts | 54° |
| 2026-05-07 10:32 | -34.96923 | 149.03174 | 35280 ft | 514 kts | 54° |
| 2026-05-07 10:32 | -34.92598 | 149.09999 | 35196 ft | 509 kts | 53° |
| 2026-05-07 10:33 | -34.88244 | 149.16816 | 35234 ft | 510 kts | 53° |
| 2026-05-07 10:33 | -34.83869 | 149.23621 | 35259 ft | 510 kts | 53° |
| 2026-05-07 10:34 | -34.79500 | 149.30419 | 34697 ft | 513 kts | 54° |
| 2026-05-07 10:34 | -34.77282 | 149.33881 | 33645 ft | 522 kts | 55° |
| 2026-05-07 10:34 | -34.75065 | 149.37357 | 32775 ft | 516 kts | 57° |
| 2026-05-07 10:35 | -34.73133 | 149.41000 | 32003 ft | 511 kts | 65° |
| 2026-05-07 10:35 | -34.71498 | 149.44776 | 31265 ft | 513 kts | 66° |
| 2026-05-07 10:35 | -34.69836 | 149.48622 | 30543 ft | 516 kts | 66° |
| 2026-05-07 10:35 | -34.68157 | 149.52483 | 29723 ft | 517 kts | 66° |
| 2026-05-07 10:36 | -34.66474 | 149.56333 | 28891 ft | 516 kts | 66° |
| 2026-05-07 10:36 | -34.64786 | 149.60177 | 28126 ft | 515 kts | 66° |
| 2026-05-07 10:36 | -34.63103 | 149.64001 | 27341 ft | 513 kts | 66° |
| 2026-05-07 10:36 | -34.61423 | 149.67816 | 26548 ft | 511 kts | 66° |
| 2026-05-07 10:37 | -34.59749 | 149.71618 | 25802 ft | 509 kts | 65° |
| 2026-05-07 10:37 | -34.58088 | 149.75398 | 25078 ft | 507 kts | 65° |
| 2026-05-07 10:37 | -34.56434 | 149.79168 | 24374 ft | 505 kts | 65° |
| 2026-05-07 10:37 | -34.54809 | 149.82870 | 23675 ft | 502 kts | 65° |
| 2026-05-07 10:38 | -34.53170 | 149.86589 | 23102 ft | 494 kts | 65° |
| 2026-05-07 10:38 | -34.51570 | 149.90201 | 22879 ft | 480 kts | 66° |
| 2026-05-07 10:38 | -34.50009 | 149.93724 | 22604 ft | 469 kts | 66° |
| 2026-05-07 10:38 | -34.48481 | 149.97174 | 22299 ft | 461 kts | 66° |
| 2026-05-07 10:39 | -34.46973 | 150.00584 | 21794 ft | 457 kts | 66° |
| 2026-05-07 10:39 | -34.45478 | 150.03969 | 21316 ft | 454 kts | 67° |
| 2026-05-07 10:39 | -34.44011 | 150.07287 | 20830 ft | 450 kts | 67° |
| 2026-05-07 10:39 | -34.42537 | 150.10607 | 20330 ft | 447 kts | 67° |
| 2026-05-07 10:40 | -34.41064 | 150.13915 | 19841 ft | 444 kts | 67° |
| 2026-05-07 10:40 | -34.39599 | 150.17203 | 19373 ft | 441 kts | 68° |
| 2026-05-07 10:40 | -34.38155 | 150.20442 | 19194 ft | 436 kts | 69° |
| 2026-05-07 10:40 | -34.36721 | 150.23666 | 19180 ft | 436 kts | 69° |
| 2026-05-07 10:41 | -34.35281 | 150.26904 | 19186 ft | 436 kts | 68° |
| 2026-05-07 10:41 | -34.33839 | 150.30141 | 18410 ft | 441 kts | 69° |
| 2026-05-07 10:41 | -34.32379 | 150.33432 | 17546 ft | 446 kts | 69° |
| 2026-05-07 10:41 | -34.30915 | 150.36731 | 16902 ft | 443 kts | 68° |
| 2026-05-07 10:42 | -34.29455 | 150.39987 | 16346 ft | 437 kts | 68° |
| 2026-05-07 10:42 | -34.28005 | 150.43201 | 15767 ft | 433 kts | 68° |
| 2026-05-07 10:42 | -34.26590 | 150.46339 | 15226 ft | 428 kts | 68° |
| 2026-05-07 10:42 | -34.25185 | 150.49459 | 14667 ft | 416 kts | 67° |
| 2026-05-07 10:43 | -34.23813 | 150.52506 | 13653 ft | 408 kts | 67° |
| 2026-05-07 10:43 | -34.22480 | 150.55484 | 12643 ft | 398 kts | 66° |
| 2026-05-07 10:43 | -34.21183 | 150.58386 | 11804 ft | 386 kts | 65° |
| 2026-05-07 10:43 | -34.19927 | 150.61171 | 11128 ft | 370 kts | 65° |
| 2026-05-07 10:44 | -34.18729 | 150.63852 | 10787 ft | 360 kts | 65° |
| 2026-05-07 10:44 | -34.17553 | 150.66505 | 10540 ft | 353 kts | 64° |
| 2026-05-07 10:44 | -34.16421 | 150.69031 | 10381 ft | 329 kts | 64° |
| 2026-05-07 10:44 | -34.15352 | 150.71394 | 10020 ft | 315 kts | 63° |
| 2026-05-07 10:45 | -34.14315 | 150.73691 | 9695 ft | 308 kts | 64° |
| 2026-05-07 10:45 | -34.13305 | 150.75931 | 9571 ft | 308 kts | 64° |
| 2026-05-07 10:45 | -34.12297 | 150.78208 | 9436 ft | 307 kts | 68° |
| 2026-05-07 10:45 | -34.11499 | 150.80580 | 9129 ft | 304 kts | 72° |
| 2026-05-07 10:46 | -34.10763 | 150.82967 | 8801 ft | 302 kts | 73° |
| 2026-05-07 10:46 | -34.10039 | 150.85340 | 8472 ft | 301 kts | 74° |
| 2026-05-07 10:46 | -34.09426 | 150.87740 | 8146 ft | 298 kts | 78° |
| 2026-05-07 10:46 | -34.08852 | 150.90134 | 7830 ft | 296 kts | 78° |
| 2026-05-07 10:47 | -34.08283 | 150.92516 | 7532 ft | 295 kts | 78° |
| 2026-05-07 10:47 | -34.07716 | 150.94882 | 7233 ft | 292 kts | 78° |
| 2026-05-07 10:47 | -34.07151 | 150.97232 | 6919 ft | 291 kts | 78° |
| 2026-05-07 10:47 | -34.06581 | 150.99566 | 6611 ft | 290 kts | 78° |
| 2026-05-07 10:48 | -34.06018 | 151.01868 | 6279 ft | 289 kts | 78° |
| 2026-05-07 10:48 | -34.05451 | 151.04190 | 5940 ft | 287 kts | 78° |
| 2026-05-07 10:48 | -34.04873 | 151.06504 | 5551 ft | 290 kts | 78° |
| 2026-05-07 10:48 | -34.04276 | 151.08817 | 5193 ft | 289 kts | 78° |
| 2026-05-07 10:49 | -34.03685 | 151.11131 | 4847 ft | 290 kts | 78° |
| 2026-05-07 10:49 | -34.03101 | 151.13447 | 4497 ft | 291 kts | 78° |
| 2026-05-07 10:49 | -34.02516 | 151.15774 | 4179 ft | 289 kts | 77° |
| 2026-05-07 10:49 | -34.01932 | 151.18086 | 3834 ft | 288 kts | 78° |
| 2026-05-07 10:50 | -34.01356 | 151.20393 | 3449 ft | 287 kts | 78° |
| 2026-05-07 10:50 | -34.00782 | 151.22686 | 3069 ft | 286 kts | 78° |
| 2026-05-07 10:50 | -34.00213 | 151.24996 | 3005 ft | 290 kts | 78° |
| 2026-05-07 10:50 | -33.99659 | 151.27267 | 3004 ft | 285 kts | 78° |
| 2026-05-07 10:51 | -33.99131 | 151.29405 | 3006 ft | 263 kts | 77° |
| 2026-05-07 10:51 | -33.98655 | 151.31258 | 3008 ft | 248 kts | 77° |
| 2026-05-07 10:51 | -33.98085 | 151.33139 | 3004 ft | 241 kts | 62° |
| 2026-05-07 10:51 | -33.97052 | 151.34460 | 2930 ft | 224 kts | 25° |
| 2026-05-07 10:52 | -33.95836 | 151.35037 | 2663 ft | 203 kts | 360° |
| 2026-05-07 10:52 | -33.94508 | 151.34925 | 2254 ft | 188 kts | 336° |
| 2026-05-07 10:52 | -33.93307 | 151.34475 | 1938 ft | 176 kts | 322° |
| 2026-05-07 10:52 | -33.92350 | 151.33724 | 1735 ft | 163 kts | 305° |
| 2026-05-07 10:53 | -33.91680 | 151.32747 | 1693 ft | 154 kts | 290° |
| 2026-05-07 10:53 | -33.91286 | 151.31675 | 1688 ft | 132 kts | 276° |
| 2026-05-07 10:53 | -33.91145 | 151.30627 | 1699 ft | 125 kts | 265° |
| 2026-05-07 10:53 | -33.91242 | 151.29591 | 1708 ft | 125 kts | 252° |
| 2026-05-07 10:54 | -33.91481 | 151.28584 | 1690 ft | 125 kts | 250° |
| 2026-05-07 10:54 | -33.91725 | 151.27559 | 1566 ft | 129 kts | 250° |
| 2026-05-07 10:54 | -33.91970 | 151.26528 | 1380 ft | 128 kts | 250° |
| 2026-05-07 10:54 | -33.92215 | 151.25494 | 1188 ft | 128 kts | 251° |
| 2026-05-07 10:55 | -33.92462 | 151.24453 | 1019 ft | 129 kts | 251° |
| 2026-05-07 10:55 | -33.92708 | 151.23412 | 831 ft | 128 kts | 251° |
| 2026-05-07 10:55 | -33.92948 | 151.22399 | 661 ft | 126 kts | 255° |
| 2026-05-07 10:55 | -33.93194 | 151.21359 | 474 ft | 133 kts | 257° |
| 2026-05-07 10:56 | -33.93446 | 151.20292 | 303 ft | 132 kts | 256° |
| 2026-05-07 10:56 | -33.93695 | 151.19250 | 148 ft | 126 kts | 257° |
| 2026-05-07 10:56 | -33.93924 | 151.18264 | 29 ft | 108 kts | 255° |
| 2026-05-07 10:56 | -33.94080 | 151.17601 | 28 ft | 57 kts | 254° |
| 2026-05-07 10:57 | -33.94142 | 151.17324 | 28 ft | 15 kts | 255° |
| 2026-05-07 10:57 | -33.94104 | 151.17260 | 29 ft | 10 kts | 346° |
| 2026-05-07 10:57 | -33.94053 | 151.17246 | 29 ft | 0 kts | 348° |
| 2026-05-07 10:58 | -33.94045 | 151.17244 | 29 ft | 3 kts | 348° |
| 2026-05-07 10:58 | -33.94017 | 151.17237 | 29 ft | 6 kts | 348° |
| 2026-05-07 10:58 | -33.93971 | 151.17248 | 29 ft | 8 kts | 41° |
| 2026-05-07 10:59 | -33.93945 | 151.17330 | 27 ft | 13 kts | 75° |
| 2026-05-07 10:59 | -33.93916 | 151.17451 | 27 ft | 16 kts | 73° |
| 2026-05-07 10:59 | -33.93884 | 151.17567 | 29 ft | 11 kts | 63° |
| 2026-05-07 10:59 | -33.93815 | 151.17590 | 29 ft | 12 kts | 346° |
| 2026-05-07 11:00 | -33.93721 | 151.17564 | 29 ft | 16 kts | 349° |
| 2026-05-07 11:00 | -33.93655 | 151.17582 | 29 ft | 7 kts | 46° |
| 2026-05-07 11:00 | -33.93608 | 151.17614 | 30 ft | 9 kts | 3° |
| 2026-05-07 11:00 | -33.93550 | 151.17614 | 30 ft | 4 kts | 48° |
| 2026-05-07 11:01 | -33.93552 | 151.17636 | 30 ft | 4 kts | 99° |
| 2026-05-07 11:01 | -33.93557 | 151.17674 | 30 ft | 2 kts | 101° |
| 2026-05-07 11:01 | -33.93559 | 151.17683 | 30 ft | 1 kts | 101° |
| 2026-05-07 11:01 | -33.93559 | 151.17686 | 30 ft | 0 kts | 101° |
| 2026-05-07 11:02 | -33.93559 | 151.17687 | 30 ft | 0 kts | 101° |